Weyauwega, WI

2:38 AM CDT on August 22, 2014 (GMT -0500)
W9SBU | Change Station
CLOSE
Current Station
Personal Weather Station
Location: Weyauwega, WI
Elevation: 822 ft
Nearby Weather Stations

Elev 822 ft 44.32 °N, 88.93 °W | Updated 4 seconds ago

Overcast
Overcast
70.3 °F
Feels Like 70.3 °F
N
2.9
Wind Variable Wind from SSE
Gusts 6.9 mph

Today
High -- | Low -- °F
--% Chance of Precip.
Yesterday
High -- | Low -- °F
Precip. -- in
6:07 AM 7:49 PM
Waning Crescent, 9% visible
Pressure 29.92 in
Visibility 1.8 miles
Clouds Overcast 300 ft
Dew Point 67 °F
Humidity 90%
Rainfall 0.00 in
Snow Depth Not available.
UV 0 out of 12
Pollen 6.80 out of 12
Air Quality Not available.
Flu Activity Not available.
METAR KPCZ 220715Z AUTO 00000KT 1 3/4SM BR OVC003 22/21 A2992 RMK AO2 T02170208

More Conditions Fewer Conditions

Pressure 29.92 in
Visibility 1.8 miles
Clouds Overcast 300 ft
Dew Point 67 °F
Humidity 90%
Rainfall 0.00 in
Snow Depth Not available.
UV 0 out of 12
Pollen 6.80 out of 12
Air Quality Not available.
Flu Activity Not available.
METAR KPCZ 220715Z AUTO 00000KT 1 3/4SM BR OVC003 22/21 A2992 RMK AO2 T02170208

More Conditions Fewer Conditions

Nowcast | as of 12:37 am CDT on August 22, 2014

patchy dense fog across the area... Light winds in the wake of recent rains was allowing some fog to form across the area. Although most reporting sites at airports were reporting visibilities of at least a mile...the fog was dense and reducing visibilities below 1/4 mile at few locations. Anyone traveling early this morning should be alert for the possibility of encountering patchy dense fog. Fog banks are most likely to form in low-lying areas and near rivers and streams. If you encounter a fog bank while driving...slow your vehicle to the point where you will be able to safely stop if you encounter an object or animal on the Road. Always use low-beam headlights when driving in fog.

×

10-Day Weather Forecast

Almanac

Astronomy

Aug. 22, 2014 Rise Set
Actual Time 6:07 AM CDT 7:49 PM CDT
Civil Twilight 5:36 AM CDT 8:19 PM CDT
Nautical Twilight 4:58 AM CDT 8:57 PM CDT
Astronomical Twilight 4:18 AM CDT 9:37 PM CDT
Moon 3:26 AM CDT 5:59 PM CDT
Length of Visible Light 14h 43m
Length of Day
13h 42m
Tomorrow will be 2m 51s shorter.
Waning Crescent, 9% of the Moon is Illuminated
Today
Waning Crescent
Aug 25
New
Sep 2
First Quarter
Sep 8
Full
Sep 15
Last Quarter

Today's Extremes

State Highs State Lows

Community

WunderPhotos

Upload Photos

1,746,131 photos uploaded!

Nearby

Snow Depth

Station Depth Elevation
No new snow has been reported.

Earthquake Activity

City Distance Mag. Time & Date
No recent earthquake activity has been reported nearby.
Minimum magnitude displayed is 2.5.

Coastal Water Temperatures

Place Temperature
No Stations Reporting

Nearby Weather Stations